sensor_id;sensor_type;location;lat;lon;timestamp;P1;durP1;ratioP1;P2;durP2;ratioP2
4210;SDS011;2119;48.828;12.396;2024-01-27T00:04:40;2.10;;;1.70;;
4210;SDS011;2119;48.828;12.396;2024-01-27T00:09:40;2.87;;;1.80;;
4210;SDS011;2119;48.828;12.396;2024-01-27T00:14:40;3.60;;;2.17;;
4210;SDS011;2119;48.828;12.396;2024-01-27T00:19:41;6.80;;;1.77;;
4210;SDS011;2119;48.828;12.396;2024-01-27T00:24:42;6.50;;;2.40;;
4210;SDS011;2119;48.828;12.396;2024-01-27T00:29:43;3.40;;;1.53;;
4210;SDS011;2119;48.828;12.396;2024-01-27T00:34:43;10.07;;;2.03;;
4210;SDS011;2119;48.828;12.396;2024-01-27T00:39:43;2.07;;;1.87;;
4210;SDS011;2119;48.828;12.396;2024-01-27T00:44:45;4.60;;;1.80;;
4210;SDS011;2119;48.828;12.396;2024-01-27T00:49:45;3.60;;;1.70;;
4210;SDS011;2119;48.828;12.396;2024-01-27T00:54:45;8.20;;;2.43;;
4210;SDS011;2119;48.828;12.396;2024-01-27T00:59:45;7.87;;;2.40;;
4210;SDS011;2119;48.828;12.396;2024-01-27T01:04:46;3.23;;;1.90;;
4210;SDS011;2119;48.828;12.396;2024-01-27T01:09:46;4.47;;;2.20;;
4210;SDS011;2119;48.828;12.396;2024-01-27T01:14:46;2.30;;;2.10;;
4210;SDS011;2119;48.828;12.396;2024-01-27T01:19:46;4.70;;;2.00;;
4210;SDS011;2119;48.828;12.396;2024-01-27T01:24:46;5.88;;;2.40;;
4210;SDS011;2119;48.828;12.396;2024-01-27T01:29:47;8.43;;;2.53;;
4210;SDS011;2119;48.828;12.396;2024-01-27T01:34:47;2.37;;;2.07;;
4210;SDS011;2119;48.828;12.396;2024-01-27T01:39:47;3.20;;;2.30;;
4210;SDS011;2119;48.828;12.396;2024-01-27T01:44:48;3.83;;;1.77;;
4210;SDS011;2119;48.828;12.396;2024-01-27T01:49:48;3.43;;;2.13;;
4210;SDS011;2119;48.828;12.396;2024-01-27T01:54:49;4.93;;;2.20;;
4210;SDS011;2119;48.828;12.396;2024-01-27T01:59:49;3.40;;;2.03;;
4210;SDS011;2119;48.828;12.396;2024-01-27T02:04:49;3.15;;;2.00;;
4210;SDS011;2119;48.828;12.396;2024-01-27T02:09:49;7.20;;;2.33;;
4210;SDS011;2119;48.828;12.396;2024-01-27T02:14:50;3.33;;;2.17;;
4210;SDS011;2119;48.828;12.396;2024-01-27T02:19:50;2.63;;;1.80;;
4210;SDS011;2119;48.828;12.396;2024-01-27T02:24:50;5.53;;;2.20;;
4210;SDS011;2119;48.828;12.396;2024-01-27T02:29:50;4.70;;;2.15;;
4210;SDS011;2119;48.828;12.396;2024-01-27T02:34:51;4.20;;;2.10;;
4210;SDS011;2119;48.828;12.396;2024-01-27T02:39:51;9.80;;;2.80;;
4210;SDS011;2119;48.828;12.396;2024-01-27T02:44:51;6.00;;;2.53;;
4210;SDS011;2119;48.828;12.396;2024-01-27T02:49:51;5.93;;;2.80;;
4210;SDS011;2119;48.828;12.396;2024-01-27T02:54:51;7.00;;;2.20;;
4210;SDS011;2119;48.828;12.396;2024-01-27T02:59:51;3.90;;;1.90;;
4210;SDS011;2119;48.828;12.396;2024-01-27T03:04:52;2.70;;;2.43;;
4210;SDS011;2119;48.828;12.396;2024-01-27T03:09:52;7.20;;;3.10;;
4210;SDS011;2119;48.828;12.396;2024-01-27T03:14:52;5.00;;;2.63;;
4210;SDS011;2119;48.828;12.396;2024-01-27T03:19:52;12.57;;;2.70;;
4210;SDS011;2119;48.828;12.396;2024-01-27T03:24:52;8.73;;;2.43;;
4210;SDS011;2119;48.828;12.396;2024-01-27T03:29:58;11.80;;;5.43;;
4210;SDS011;2119;48.828;12.396;2024-01-27T03:35:02;4.17;;;2.70;;
4210;SDS011;2119;48.828;12.396;2024-01-27T03:40:02;4.87;;;2.43;;
4210;SDS011;2119;48.828;12.396;2024-01-27T03:45:02;8.63;;;3.28;;
4210;SDS011;2119;48.828;12.396;2024-01-27T03:50:03;6.60;;;2.70;;
4210;SDS011;2119;48.828;12.396;2024-01-27T03:55:03;5.40;;;2.60;;
4210;SDS011;2119;48.828;12.396;2024-01-27T04:00:05;8.83;;;4.80;;
4210;SDS011;2119;48.828;12.396;2024-01-27T04:05:06;7.93;;;2.60;;
4210;SDS011;2119;48.828;12.396;2024-01-27T04:10:06;4.80;;;2.53;;
4210;SDS011;2119;48.828;12.396;2024-01-27T04:15:06;6.10;;;2.67;;
4210;SDS011;2119;48.828;12.396;2024-01-27T04:20:07;2.67;;;2.47;;
4210;SDS011;2119;48.828;12.396;2024-01-27T04:25:07;2.93;;;2.23;;
4210;SDS011;2119;48.828;12.396;2024-01-27T04:30:08;3.88;;;2.85;;
4210;SDS011;2119;48.828;12.396;2024-01-27T04:35:09;12.97;;;3.20;;
4210;SDS011;2119;48.828;12.396;2024-01-27T04:40:09;4.87;;;3.20;;
4210;SDS011;2119;48.828;12.396;2024-01-27T04:45:10;5.40;;;2.50;;
4210;SDS011;2119;48.828;12.396;2024-01-27T04:50:10;2.90;;;2.60;;
4210;SDS011;2119;48.828;12.396;2024-01-27T04:55:10;3.40;;;2.50;;
4210;SDS011;2119;48.828;12.396;2024-01-27T05:00:10;3.50;;;2.70;;
4210;SDS011;2119;48.828;12.396;2024-01-27T05:05:13;5.13;;;2.87;;
4210;SDS011;2119;48.828;12.396;2024-01-27T05:10:14;4.23;;;2.37;;
4210;SDS011;2119;48.828;12.396;2024-01-27T05:15:15;5.00;;;2.80;;
4210;SDS011;2119;48.828;12.396;2024-01-27T05:20:15;5.37;;;2.80;;
4210;SDS011;2119;48.828;12.396;2024-01-27T05:25:15;4.83;;;2.53;;
4210;SDS011;2119;48.828;12.396;2024-01-27T05:30:16;7.80;;;2.93;;
4210;SDS011;2119;48.828;12.396;2024-01-27T05:35:17;10.60;;;2.70;;
4210;SDS011;2119;48.828;12.396;2024-01-27T05:40:17;4.33;;;2.83;;
4210;SDS011;2119;48.828;12.396;2024-01-27T05:45:17;8.45;;;3.30;;
4210;SDS011;2119;48.828;12.396;2024-01-27T05:50:18;7.20;;;3.43;;
4210;SDS011;2119;48.828;12.396;2024-01-27T05:55:18;8.37;;;3.27;;
4210;SDS011;2119;48.828;12.396;2024-01-27T06:00:18;4.25;;;2.88;;
4210;SDS011;2119;48.828;12.396;2024-01-27T06:05:18;5.65;;;3.17;;
4210;SDS011;2119;48.828;12.396;2024-01-27T06:10:19;8.60;;;2.93;;
4210;SDS011;2119;48.828;12.396;2024-01-27T06:15:19;8.52;;;3.50;;
4210;SDS011;2119;48.828;12.396;2024-01-27T06:20:19;5.70;;;3.53;;
4210;SDS011;2119;48.828;12.396;2024-01-27T06:25:20;5.18;;;3.65;;
4210;SDS011;2119;48.828;12.396;2024-01-27T06:30:20;6.37;;;3.40;;
4210;SDS011;2119;48.828;12.396;2024-01-27T06:35:20;9.50;;;3.55;;
4210;SDS011;2119;48.828;12.396;2024-01-27T06:40:21;11.50;;;4.78;;
4210;SDS011;2119;48.828;12.396;2024-01-27T06:45:21;8.75;;;4.93;;
4210;SDS011;2119;48.828;12.396;2024-01-27T06:50:21;10.00;;;5.43;;
4210;SDS011;2119;48.828;12.396;2024-01-27T06:55:22;13.57;;;7.47;;
4210;SDS011;2119;48.828;12.396;2024-01-27T07:00:23;17.83;;;8.85;;
4210;SDS011;2119;48.828;12.396;2024-01-27T07:05:23;17.20;;;7.67;;
4210;SDS011;2119;48.828;12.396;2024-01-27T07:10:23;10.23;;;4.60;;
4210;SDS011;2119;48.828;12.396;2024-01-27T07:15:23;10.00;;;6.40;;
4210;SDS011;2119;48.828;12.396;2024-01-27T07:20:24;18.60;;;9.00;;
4210;SDS011;2119;48.828;12.396;2024-01-27T07:25:24;12.85;;;7.93;;
4210;SDS011;2119;48.828;12.396;2024-01-27T07:30:24;12.30;;;7.93;;
4210;SDS011;2119;48.828;12.396;2024-01-27T07:35:25;8.47;;;6.10;;
4210;SDS011;2119;48.828;12.396;2024-01-27T07:40:25;8.60;;;4.60;;
4210;SDS011;2119;48.828;12.396;2024-01-27T07:45:25;7.80;;;5.00;;
4210;SDS011;2119;48.828;12.396;2024-01-27T07:50:25;8.17;;;6.43;;
4210;SDS011;2119;48.828;12.396;2024-01-27T07:55:25;9.70;;;7.00;;
4210;SDS011;2119;48.828;12.396;2024-01-27T08:00:25;10.07;;;7.07;;
4210;SDS011;2119;48.828;12.396;2024-01-27T08:05:25;14.93;;;10.50;;
4210;SDS011;2119;48.828;12.396;2024-01-27T08:10:26;15.05;;;8.15;;
4210;SDS011;2119;48.828;12.396;2024-01-27T08:15:26;17.70;;;8.52;;
4210;SDS011;2119;48.828;12.396;2024-01-27T08:20:26;20.40;;;11.23;;
4210;SDS011;2119;48.828;12.396;2024-01-27T08:25:26;19.90;;;9.27;;
4210;SDS011;2119;48.828;12.396;2024-01-27T08:30:27;20.77;;;14.37;;
4210;SDS011;2119;48.828;12.396;2024-01-27T08:35:27;22.67;;;9.48;;
4210;SDS011;2119;48.828;12.396;2024-01-27T08:40:27;13.00;;;8.20;;
4210;SDS011;2119;48.828;12.396;2024-01-27T08:45:27;11.63;;;8.32;;
4210;SDS011;2119;48.828;12.396;2024-01-27T08:50:28;11.70;;;5.33;;
4210;SDS011;2119;48.828;12.396;2024-01-27T08:55:28;13.07;;;5.70;;
4210;SDS011;2119;48.828;12.396;2024-01-27T09:00:28;13.20;;;6.85;;
4210;SDS011;2119;48.828;12.396;2024-01-27T09:05:28;9.98;;;4.07;;
4210;SDS011;2119;48.828;12.396;2024-01-27T09:10:29;5.50;;;3.77;;
4210;SDS011;2119;48.828;12.396;2024-01-27T09:15:29;8.00;;;3.60;;
4210;SDS011;2119;48.828;12.396;2024-01-27T09:20:30;12.73;;;4.00;;
4210;SDS011;2119;48.828;12.396;2024-01-27T09:25:30;8.67;;;4.20;;
4210;SDS011;2119;48.828;12.396;2024-01-27T09:30:31;7.93;;;4.17;;
4210;SDS011;2119;48.828;12.396;2024-01-27T09:35:31;10.48;;;4.45;;
4210;SDS011;2119;48.828;12.396;2024-01-27T09:40:31;4.90;;;3.80;;
4210;SDS011;2119;48.828;12.396;2024-01-27T09:45:31;12.07;;;4.43;;
4210;SDS011;2119;48.828;12.396;2024-01-27T09:50:33;10.53;;;4.40;;
4210;SDS011;2119;48.828;12.396;2024-01-27T09:55:33;7.33;;;4.20;;
4210;SDS011;2119;48.828;12.396;2024-01-27T10:00:34;6.43;;;4.30;;
4210;SDS011;2119;48.828;12.396;2024-01-27T10:05:36;7.57;;;4.10;;
4210;SDS011;2119;48.828;12.396;2024-01-27T10:10:36;4.33;;;3.93;;
4210;SDS011;2119;48.828;12.396;2024-01-27T10:15:36;6.35;;;3.90;;
4210;SDS011;2119;48.828;12.396;2024-01-27T10:20:36;7.28;;;3.83;;
4210;SDS011;2119;48.828;12.396;2024-01-27T10:25:38;7.20;;;4.00;;
4210;SDS011;2119;48.828;12.396;2024-01-27T10:30:38;10.70;;;3.80;;
4210;SDS011;2119;48.828;12.396;2024-01-27T10:35:39;13.00;;;5.10;;
4210;SDS011;2119;48.828;12.396;2024-01-27T10:40:40;8.00;;;4.27;;
4210;SDS011;2119;48.828;12.396;2024-01-27T10:45:40;8.48;;;4.38;;
4210;SDS011;2119;48.828;12.396;2024-01-27T10:50:41;7.67;;;4.40;;
4210;SDS011;2119;48.828;12.396;2024-01-27T10:55:41;6.70;;;3.58;;
4210;SDS011;2119;48.828;12.396;2024-01-27T11:00:42;7.13;;;3.63;;
4210;SDS011;2119;48.828;12.396;2024-01-27T11:05:43;8.13;;;3.87;;
4210;SDS011;2119;48.828;12.396;2024-01-27T11:10:44;9.37;;;4.40;;
4210;SDS011;2119;48.828;12.396;2024-01-27T11:15:52;5.90;;;3.63;;
4210;SDS011;2119;48.828;12.396;2024-01-27T11:20:53;6.70;;;5.53;;
4210;SDS011;2119;48.828;12.396;2024-01-27T11:26:01;7.27;;;3.77;;
4210;SDS011;2119;48.828;12.396;2024-01-27T11:31:06;4.60;;;3.40;;
4210;SDS011;2119;48.828;12.396;2024-01-27T11:36:06;13.47;;;6.70;;
4210;SDS011;2119;48.828;12.396;2024-01-27T11:41:06;11.83;;;6.17;;
4210;SDS011;2119;48.828;12.396;2024-01-27T11:46:07;9.98;;;4.50;;
4210;SDS011;2119;48.828;12.396;2024-01-27T11:51:10;14.10;;;4.45;;
4210;SDS011;2119;48.828;12.396;2024-01-27T11:56:10;9.20;;;5.10;;
4210;SDS011;2119;48.828;12.396;2024-01-27T12:01:10;7.70;;;4.03;;
4210;SDS011;2119;48.828;12.396;2024-01-27T12:06:10;14.82;;;4.65;;
4210;SDS011;2119;48.828;12.396;2024-01-27T12:11:11;7.15;;;3.83;;
4210;SDS011;2119;48.828;12.396;2024-01-27T12:16:11;9.60;;;3.43;;
4210;SDS011;2119;48.828;12.396;2024-01-27T12:21:12;9.13;;;3.83;;
4210;SDS011;2119;48.828;12.396;2024-01-27T12:26:14;4.37;;;3.70;;
4210;SDS011;2119;48.828;12.396;2024-01-27T12:31:17;6.73;;;4.23;;
4210;SDS011;2119;48.828;12.396;2024-01-27T12:36:18;7.23;;;5.10;;
4210;SDS011;2119;48.828;12.396;2024-01-27T12:41:21;4.80;;;3.57;;
4210;SDS011;2119;48.828;12.396;2024-01-27T12:46:23;9.93;;;3.47;;
4210;SDS011;2119;48.828;12.396;2024-01-27T12:51:23;9.73;;;4.10;;
4210;SDS011;2119;48.828;12.396;2024-01-27T12:56:24;7.73;;;3.37;;
4210;SDS011;2119;48.828;12.396;2024-01-27T13:01:24;9.13;;;3.70;;
4210;SDS011;2119;48.828;12.396;2024-01-27T13:06:25;9.30;;;3.53;;
4210;SDS011;2119;48.828;12.396;2024-01-27T13:11:25;5.25;;;3.70;;
4210;SDS011;2119;48.828;12.396;2024-01-27T13:16:25;8.27;;;3.77;;
4210;SDS011;2119;48.828;12.396;2024-01-27T13:21:25;6.80;;;3.00;;
4210;SDS011;2119;48.828;12.396;2024-01-27T13:26:27;9.87;;;4.53;;
4210;SDS011;2119;48.828;12.396;2024-01-27T13:31:27;7.03;;;3.53;;
4210;SDS011;2119;48.828;12.396;2024-01-27T13:36:27;3.60;;;2.60;;
4210;SDS011;2119;48.828;12.396;2024-01-27T13:41:28;8.77;;;3.20;;
4210;SDS011;2119;48.828;12.396;2024-01-27T13:46:28;4.53;;;2.93;;
4210;SDS011;2119;48.828;12.396;2024-01-27T13:51:28;10.88;;;2.97;;
4210;SDS011;2119;48.828;12.396;2024-01-27T13:56:28;8.40;;;4.53;;
4210;SDS011;2119;48.828;12.396;2024-01-27T14:01:32;13.13;;;5.10;;
4210;SDS011;2119;48.828;12.396;2024-01-27T14:06:33;6.70;;;5.17;;
4210;SDS011;2119;48.828;12.396;2024-01-27T14:11:34;5.87;;;2.50;;
4210;SDS011;2119;48.828;12.396;2024-01-27T14:16:34;7.65;;;4.85;;
4210;SDS011;2119;48.828;12.396;2024-01-27T14:21:34;5.95;;;3.00;;
4210;SDS011;2119;48.828;12.396;2024-01-27T14:26:36;6.60;;;3.37;;
4210;SDS011;2119;48.828;12.396;2024-01-27T14:31:36;3.20;;;2.67;;
4210;SDS011;2119;48.828;12.396;2024-01-27T14:36:36;13.20;;;6.27;;
4210;SDS011;2119;48.828;12.396;2024-01-27T14:41:40;8.70;;;3.30;;
4210;SDS011;2119;48.828;12.396;2024-01-27T14:46:40;11.43;;;3.70;;
4210;SDS011;2119;48.828;12.396;2024-01-27T14:51:40;8.30;;;4.93;;
4210;SDS011;2119;48.828;12.396;2024-01-27T14:56:41;8.47;;;4.53;;
4210;SDS011;2119;48.828;12.396;2024-01-27T15:01:41;9.80;;;5.20;;
4210;SDS011;2119;48.828;12.396;2024-01-27T15:06:41;11.00;;;5.93;;
4210;SDS011;2119;48.828;12.396;2024-01-27T15:11:41;7.43;;;5.37;;
4210;SDS011;2119;48.828;12.396;2024-01-27T15:16:42;13.30;;;7.05;;
4210;SDS011;2119;48.828;12.396;2024-01-27T15:21:42;10.35;;;5.68;;
4210;SDS011;2119;48.828;12.396;2024-01-27T15:26:42;11.47;;;5.60;;
4210;SDS011;2119;48.828;12.396;2024-01-27T15:31:42;8.32;;;4.28;;
4210;SDS011;2119;48.828;12.396;2024-01-27T15:36:42;10.57;;;4.87;;
4210;SDS011;2119;48.828;12.396;2024-01-27T15:41:44;10.97;;;5.63;;
4210;SDS011;2119;48.828;12.396;2024-01-27T15:46:44;6.00;;;3.90;;
4210;SDS011;2119;48.828;12.396;2024-01-27T15:51:44;11.73;;;5.10;;
4210;SDS011;2119;48.828;12.396;2024-01-27T15:56:45;15.53;;;8.13;;
4210;SDS011;2119;48.828;12.396;2024-01-27T16:01:46;9.50;;;5.70;;
4210;SDS011;2119;48.828;12.396;2024-01-27T16:06:46;19.70;;;8.52;;
4210;SDS011;2119;48.828;12.396;2024-01-27T16:11:47;11.83;;;8.00;;
4210;SDS011;2119;48.828;12.396;2024-01-27T16:16:47;21.10;;;12.20;;
4210;SDS011;2119;48.828;12.396;2024-01-27T16:21:47;30.83;;;12.30;;
4210;SDS011;2119;48.828;12.396;2024-01-27T16:26:47;37.77;;;13.70;;
4210;SDS011;2119;48.828;12.396;2024-01-27T16:31:54;30.93;;;12.17;;
4210;SDS011;2119;48.828;12.396;2024-01-27T16:36:54;23.57;;;10.50;;
4210;SDS011;2119;48.828;12.396;2024-01-27T16:41:54;23.97;;;13.13;;
4210;SDS011;2119;48.828;12.396;2024-01-27T16:46:54;34.00;;;17.27;;
4210;SDS011;2119;48.828;12.396;2024-01-27T16:51:54;18.93;;;11.20;;
4210;SDS011;2119;48.828;12.396;2024-01-27T16:56:55;22.65;;;9.95;;
4210;SDS011;2119;48.828;12.396;2024-01-27T17:01:58;27.30;;;14.53;;
4210;SDS011;2119;48.828;12.396;2024-01-27T17:06:59;27.30;;;12.73;;
4210;SDS011;2119;48.828;12.396;2024-01-27T17:12:00;20.93;;;12.97;;
4210;SDS011;2119;48.828;12.396;2024-01-27T17:17:01;22.07;;;12.47;;
4210;SDS011;2119;48.828;12.396;2024-01-27T17:22:01;24.60;;;14.50;;
4210;SDS011;2119;48.828;12.396;2024-01-27T17:27:01;17.42;;;9.32;;
4210;SDS011;2119;48.828;12.396;2024-01-27T17:32:01;17.83;;;10.52;;
4210;SDS011;2119;48.828;12.396;2024-01-27T17:37:02;16.73;;;9.17;;
4210;SDS011;2119;48.828;12.396;2024-01-27T17:42:02;18.42;;;11.18;;
4210;SDS011;2119;48.828;12.396;2024-01-27T17:47:03;37.67;;;19.70;;
4210;SDS011;2119;48.828;12.396;2024-01-27T17:52:03;22.13;;;12.48;;
4210;SDS011;2119;48.828;12.396;2024-01-27T17:57:04;28.27;;;17.90;;
4210;SDS011;2119;48.828;12.396;2024-01-27T18:02:05;37.37;;;17.60;;
4210;SDS011;2119;48.828;12.396;2024-01-27T18:07:05;26.17;;;14.50;;
4210;SDS011;2119;48.828;12.396;2024-01-27T18:12:06;28.85;;;17.80;;
4210;SDS011;2119;48.828;12.396;2024-01-27T18:17:07;23.87;;;13.43;;
4210;SDS011;2119;48.828;12.396;2024-01-27T18:22:07;22.70;;;12.63;;
4210;SDS011;2119;48.828;12.396;2024-01-27T18:27:09;25.33;;;14.53;;
4210;SDS011;2119;48.828;12.396;2024-01-27T18:32:10;23.50;;;12.40;;
4210;SDS011;2119;48.828;12.396;2024-01-27T18:37:11;17.53;;;10.60;;
4210;SDS011;2119;48.828;12.396;2024-01-27T18:42:11;16.63;;;8.15;;
4210;SDS011;2119;48.828;12.396;2024-01-27T18:47:11;15.13;;;7.90;;
4210;SDS011;2119;48.828;12.396;2024-01-27T18:52:11;18.57;;;9.20;;
4210;SDS011;2119;48.828;12.396;2024-01-27T18:57:12;12.33;;;8.67;;
4210;SDS011;2119;48.828;12.396;2024-01-27T19:02:12;22.23;;;12.33;;
4210;SDS011;2119;48.828;12.396;2024-01-27T19:07:14;18.23;;;11.80;;
4210;SDS011;2119;48.828;12.396;2024-01-27T19:12:15;21.98;;;13.18;;
4210;SDS011;2119;48.828;12.396;2024-01-27T19:17:15;20.90;;;12.00;;
4210;SDS011;2119;48.828;12.396;2024-01-27T19:22:15;17.60;;;11.10;;
4210;SDS011;2119;48.828;12.396;2024-01-27T19:27:15;20.15;;;10.40;;
4210;SDS011;2119;48.828;12.396;2024-01-27T19:32:15;23.77;;;13.88;;
4210;SDS011;2119;48.828;12.396;2024-01-27T19:37:16;19.60;;;13.38;;
4210;SDS011;2119;48.828;12.396;2024-01-27T19:42:16;21.13;;;11.00;;
4210;SDS011;2119;48.828;12.396;2024-01-27T19:47:16;14.30;;;10.50;;
4210;SDS011;2119;48.828;12.396;2024-01-27T19:52:17;18.53;;;10.13;;
4210;SDS011;2119;48.828;12.396;2024-01-27T19:57:17;22.08;;;13.68;;
4210;SDS011;2119;48.828;12.396;2024-01-27T20:02:17;18.93;;;11.70;;
4210;SDS011;2119;48.828;12.396;2024-01-27T20:07:17;20.02;;;11.27;;
4210;SDS011;2119;48.828;12.396;2024-01-27T20:12:19;30.70;;;19.30;;
4210;SDS011;2119;48.828;12.396;2024-01-27T20:17:19;30.10;;;16.90;;
4210;SDS011;2119;48.828;12.396;2024-01-27T20:22:20;23.97;;;13.50;;
4210;SDS011;2119;48.828;12.396;2024-01-27T20:27:20;59.43;;;30.90;;
4210;SDS011;2119;48.828;12.396;2024-01-27T20:32:20;49.60;;;24.83;;
4210;SDS011;2119;48.828;12.396;2024-01-27T20:37:20;24.42;;;16.35;;
4210;SDS011;2119;48.828;12.396;2024-01-27T20:42:20;26.30;;;15.00;;
4210;SDS011;2119;48.828;12.396;2024-01-27T20:47:21;19.47;;;13.40;;
4210;SDS011;2119;48.828;12.396;2024-01-27T20:52:21;19.80;;;13.83;;
4210;SDS011;2119;48.828;12.396;2024-01-27T20:57:21;29.37;;;15.10;;
4210;SDS011;2119;48.828;12.396;2024-01-27T21:02:23;23.53;;;14.13;;
4210;SDS011;2119;48.828;12.396;2024-01-27T21:07:24;18.70;;;11.50;;
4210;SDS011;2119;48.828;12.396;2024-01-27T21:12:25;15.90;;;10.67;;
4210;SDS011;2119;48.828;12.396;2024-01-27T21:17:25;22.58;;;11.52;;
4210;SDS011;2119;48.828;12.396;2024-01-27T21:22:25;23.97;;;12.77;;
4210;SDS011;2119;48.828;12.396;2024-01-27T21:27:26;24.73;;;13.00;;
4210;SDS011;2119;48.828;12.396;2024-01-27T21:32:26;32.53;;;14.20;;
4210;SDS011;2119;48.828;12.396;2024-01-27T21:37:26;19.93;;;11.10;;
4210;SDS011;2119;48.828;12.396;2024-01-27T21:42:26;18.05;;;11.95;;
4210;SDS011;2119;48.828;12.396;2024-01-27T21:47:26;24.48;;;12.85;;
4210;SDS011;2119;48.828;12.396;2024-01-27T21:52:27;22.63;;;11.83;;
4210;SDS011;2119;48.828;12.396;2024-01-27T21:57:27;15.90;;;10.50;;
4210;SDS011;2119;48.828;12.396;2024-01-27T22:02:27;22.00;;;11.20;;
4210;SDS011;2119;48.828;12.396;2024-01-27T22:07:27;21.57;;;11.77;;
4210;SDS011;2119;48.828;12.396;2024-01-27T22:12:27;23.23;;;13.30;;
4210;SDS011;2119;48.828;12.396;2024-01-27T22:17:28;26.60;;;13.77;;
4210;SDS011;2119;48.828;12.396;2024-01-27T22:22:28;27.10;;;13.13;;
4210;SDS011;2119;48.828;12.396;2024-01-27T22:27:28;22.50;;;10.07;;
4210;SDS011;2119;48.828;12.396;2024-01-27T22:32:28;15.53;;;10.07;;
4210;SDS011;2119;48.828;12.396;2024-01-27T22:37:28;29.47;;;15.10;;
4210;SDS011;2119;48.828;12.396;2024-01-27T22:42:28;21.03;;;13.07;;
4210;SDS011;2119;48.828;12.396;2024-01-27T22:47:30;17.93;;;12.27;;
4210;SDS011;2119;48.828;12.396;2024-01-27T22:52:31;17.80;;;11.30;;
4210;SDS011;2119;48.828;12.396;2024-01-27T22:57:31;19.90;;;10.53;;
4210;SDS011;2119;48.828;12.396;2024-01-27T23:02:31;18.63;;;9.33;;
4210;SDS011;2119;48.828;12.396;2024-01-27T23:07:32;22.07;;;11.20;;
4210;SDS011;2119;48.828;12.396;2024-01-27T23:12:32;22.70;;;12.13;;
4210;SDS011;2119;48.828;12.396;2024-01-27T23:17:32;18.30;;;11.23;;
4210;SDS011;2119;48.828;12.396;2024-01-27T23:22:33;18.23;;;10.80;;
4210;SDS011;2119;48.828;12.396;2024-01-27T23:27:33;25.60;;;11.27;;
4210;SDS011;2119;48.828;12.396;2024-01-27T23:32:34;14.83;;;8.50;;
4210;SDS011;2119;48.828;12.396;2024-01-27T23:37:37;27.45;;;15.82;;
4210;SDS011;2119;48.828;12.396;2024-01-27T23:42:42;23.30;;;12.00;;
4210;SDS011;2119;48.828;12.396;2024-01-27T23:47:42;24.25;;;14.25;;
4210;SDS011;2119;48.828;12.396;2024-01-27T23:52:43;19.65;;;12.27;;
4210;SDS011;2119;48.828;12.396;2024-01-27T23:57:51;30.87;;;13.33;;
